createdAt,value
2018-11-06T00:02:20.309Z,0.60
2018-11-06T00:04:57.129Z,0.83
2018-11-06T00:07:29.710Z,0.83
2018-11-06T00:10:01.469Z,0.90
2018-11-06T00:12:33.089Z,0.70
2018-11-06T00:15:04.909Z,0.70
2018-11-06T00:17:37.289Z,0.60
2018-11-06T00:20:11.689Z,0.67
2018-11-06T00:22:43.648Z,0.70
2018-11-06T00:25:15.709Z,0.70
2018-11-06T00:27:47.270Z,0.83
2018-11-06T00:30:19.069Z,0.80
2018-11-06T00:32:50.969Z,0.90
2018-11-06T00:35:22.709Z,0.87
2018-11-06T00:37:55.109Z,0.70
2018-11-06T00:40:27.589Z,0.70
2018-11-06T00:43:00.010Z,0.63
2018-11-06T00:45:31.569Z,0.60
2018-11-06T00:48:03.529Z,1.23
2018-11-06T00:50:35.868Z,1.30
2018-11-06T00:53:07.911Z,0.80
2018-11-06T00:55:39.029Z,1.30
2018-11-06T00:58:10.809Z,0.93
2018-11-06T01:00:42.309Z,0.70
2018-11-06T01:03:13.488Z,0.50
2018-11-06T01:05:45.689Z,0.80
2018-11-06T01:08:17.269Z,0.60
2018-11-06T01:10:48.848Z,0.70
2018-11-06T01:13:20.488Z,0.50
2018-11-06T01:15:51.599Z,0.70
2018-11-06T01:18:23.769Z,1.03
2018-11-06T01:20:56.289Z,0.60
2018-11-06T01:23:27.789Z,0.70
2018-11-06T01:25:59.729Z,0.60
2018-11-06T01:28:31.189Z,0.70
2018-11-06T01:31:03.269Z,1.00
2018-11-06T01:33:34.589Z,0.63
2018-11-06T01:36:06.469Z,0.63
2018-11-06T01:38:38.309Z,0.80
2018-11-06T01:41:09.808Z,0.60
2018-11-06T01:43:41.589Z,0.60
2018-11-06T01:46:13.931Z,0.60
2018-11-06T01:48:45.908Z,0.70
2018-11-06T01:51:18.108Z,0.73
2018-11-06T01:53:50.388Z,0.53
2018-11-06T01:56:22.269Z,0.70
2018-11-06T01:58:54.533Z,0.60
2018-11-06T02:01:26.529Z,0.50
2018-11-06T02:03:58.728Z,0.60
2018-11-06T02:06:30.209Z,0.50
2018-11-06T02:09:02.388Z,0.60
2018-11-06T02:11:34.089Z,0.70
2018-11-06T02:14:05.229Z,0.60
2018-11-06T02:16:37.669Z,0.50
2018-11-06T02:19:08.908Z,0.50
2018-11-06T02:21:40.809Z,0.70
2018-11-06T02:24:11.849Z,0.43
2018-11-06T02:26:43.829Z,0.50
2018-11-06T02:29:15.889Z,0.70
2018-11-06T02:31:47.270Z,0.60
2018-11-06T02:34:19.229Z,0.50
2018-11-06T02:36:50.768Z,0.70
2018-11-06T02:39:22.368Z,0.63
2018-11-06T02:41:53.849Z,0.70
2018-11-06T02:44:26.170Z,0.80
2018-11-06T02:46:58.576Z,0.70
2018-11-06T02:49:30.449Z,0.77
2018-11-06T02:52:03.228Z,0.70
2018-11-06T02:54:34.429Z,0.60
2018-11-06T02:57:06.828Z,0.63
2018-11-06T02:59:39.129Z,0.77
2018-11-06T03:02:10.769Z,0.60
2018-11-06T03:04:42.549Z,0.50
2018-11-06T03:07:14.369Z,0.77
2018-11-06T03:09:46.668Z,0.70
2018-11-06T03:12:18.712Z,0.50
2018-11-06T03:14:50.589Z,0.60
2018-11-06T03:17:22.348Z,0.60
2018-11-06T03:19:54.209Z,0.63
2018-11-06T03:22:25.728Z,0.50
2018-11-06T03:24:57.229Z,0.53
2018-11-06T03:27:28.889Z,0.60
2018-11-06T03:30:00.671Z,0.50
2018-11-06T03:32:32.109Z,2.03
2018-11-06T03:35:03.829Z,0.90
2018-11-06T03:37:36.032Z,0.60
2018-11-06T03:40:08.692Z,0.60
2018-11-06T03:42:41.708Z,0.67
2018-11-06T03:45:14.349Z,0.67
2018-11-06T03:47:46.289Z,0.60
2018-11-06T03:50:18.249Z,0.57
2018-11-06T03:52:50.029Z,0.70
2018-11-06T03:55:22.568Z,0.80
2018-11-06T03:57:54.609Z,0.70
2018-11-06T04:00:26.230Z,0.60
2018-11-06T04:02:58.469Z,0.73
2018-11-06T04:05:30.029Z,0.70
2018-11-06T04:08:01.649Z,0.77
2018-11-06T04:10:33.612Z,0.60
2018-11-06T04:13:06.489Z,1.60
2018-11-06T04:15:38.509Z,1.23
2018-11-06T04:18:10.149Z,0.90
2018-11-06T04:20:41.669Z,0.63
2018-11-06T04:23:14.068Z,0.80
2018-11-06T04:25:46.409Z,0.60
2018-11-06T04:28:18.349Z,0.60
2018-11-06T04:30:50.309Z,0.60
2018-11-06T04:33:22.489Z,1.10
2018-11-06T04:35:53.649Z,0.70
2018-11-06T04:38:26.789Z,0.87
2018-11-06T04:40:58.929Z,0.80
2018-11-06T04:43:31.029Z,0.70
2018-11-06T04:46:02.671Z,0.60
2018-11-06T04:48:34.010Z,0.40
2018-11-06T04:51:06.169Z,0.60
2018-11-06T04:53:38.350Z,0.63
2018-11-06T04:56:10.300Z,0.40
2018-11-06T04:58:41.769Z,0.40
2018-11-06T05:01:14.190Z,0.60
2018-11-06T05:03:47.869Z,0.57
2018-11-06T05:06:20.349Z,1.03
2018-11-06T05:08:52.329Z,0.70
2018-11-06T05:11:24.570Z,1.20
2018-11-06T05:13:56.650Z,0.70
2018-11-06T05:16:28.649Z,0.60
2018-11-06T05:19:00.669Z,0.83
2018-11-06T05:21:32.169Z,0.53
2018-11-06T05:24:05.049Z,0.70
2018-11-06T05:26:36.469Z,0.60
2018-11-06T05:29:09.269Z,0.77
2018-11-06T05:31:40.730Z,0.63
2018-11-06T05:34:13.149Z,1.37
2018-11-06T05:36:44.811Z,0.80
2018-11-06T05:39:17.045Z,0.93
2018-11-06T05:41:49.089Z,1.57
2018-11-06T05:44:20.910Z,0.90
2018-11-06T05:46:52.329Z,1.10
2018-11-06T05:49:24.449Z,1.20
2018-11-06T05:51:56.449Z,1.00
2018-11-06T05:54:29.369Z,0.90
2018-11-06T05:57:01.649Z,1.27
2018-11-06T05:59:33.389Z,0.70
2018-11-06T06:02:05.429Z,1.17
2018-11-06T06:04:37.453Z,1.30
2018-11-06T06:07:09.589Z,0.73
2018-11-06T06:09:41.589Z,1.37
2018-11-06T06:12:13.349Z,0.70
2018-11-06T06:14:44.829Z,0.90
2018-11-06T06:17:16.804Z,2.30
2018-11-06T06:19:49.489Z,0.97
2018-11-06T06:22:21.242Z,1.27
2018-11-06T06:24:54.609Z,5.10
2018-11-06T06:27:26.688Z,2.80
2018-11-06T06:29:58.310Z,6.40
2018-11-06T06:32:30.569Z,1.67
2018-11-06T06:35:02.097Z,4.20
2018-11-06T06:37:33.909Z,1.60
2018-11-06T06:40:06.873Z,2.00
2018-11-06T06:42:39.212Z,1.70
2018-11-06T06:45:15.049Z,1.97
2018-11-06T06:47:46.868Z,0.90
2018-11-06T06:50:20.988Z,1.83
2018-11-06T06:52:52.809Z,2.53
2018-11-06T06:55:25.169Z,1.20
2018-11-06T06:57:57.109Z,1.40
2018-11-06T07:00:29.369Z,3.50
2018-11-06T07:03:01.709Z,2.30
2018-11-06T07:05:33.048Z,1.37
2018-11-06T07:08:04.849Z,1.20
2018-11-06T07:10:36.608Z,1.87
2018-11-06T07:13:09.087Z,1.13
2018-11-06T07:15:41.289Z,2.43
2018-11-06T07:18:14.128Z,2.07
2018-11-06T07:20:45.768Z,2.57
2018-11-06T07:23:18.228Z,13.50
2018-11-06T07:25:49.568Z,1.80
2018-11-06T07:28:21.628Z,1.30
2018-11-06T07:30:54.229Z,1.20
2018-11-06T07:33:25.590Z,1.80
2018-11-06T07:35:58.569Z,1.63
2018-11-06T07:38:30.389Z,1.23
2018-11-06T07:41:02.516Z,1.17
2018-11-06T07:43:33.789Z,1.13
2018-11-06T07:46:05.831Z,1.17
2018-11-06T07:48:37.308Z,1.40
2018-11-06T07:51:09.449Z,1.10
2018-11-06T07:53:40.948Z,2.03
2018-11-06T07:56:12.914Z,0.80
2018-11-06T07:58:44.767Z,1.20
2018-11-06T08:01:16.411Z,1.00
2018-11-06T08:03:48.110Z,1.10
2018-11-06T08:06:19.943Z,2.43
2018-11-06T08:08:51.688Z,1.60
2018-11-06T08:11:23.948Z,1.30
2018-11-06T08:13:55.448Z,1.87
2018-11-06T08:16:26.048Z,1.47
2018-11-06T08:18:57.034Z,0.80
2018-11-06T08:21:28.693Z,0.70
2018-11-06T08:23:59.922Z,0.83
2018-11-06T08:26:31.190Z,1.60
2018-11-06T08:29:03.232Z,1.07
2018-11-06T08:31:35.380Z,0.80
2018-11-06T08:34:06.686Z,1.00
2018-11-06T08:36:38.712Z,2.23
2018-11-06T08:39:12.125Z,1.60
2018-11-06T08:41:43.826Z,0.90
2018-11-06T08:44:15.906Z,0.97
2018-11-06T08:46:47.834Z,1.40
2018-11-06T08:49:19.016Z,1.70
2018-11-06T08:51:50.154Z,1.23
2018-11-06T08:54:22.104Z,1.60
2018-11-06T08:56:54.179Z,1.40
2018-11-06T08:59:25.892Z,1.07
2018-11-06T09:01:57.423Z,2.20
2018-11-06T09:04:29.542Z,3.00
2018-11-06T09:07:01.150Z,1.00
2018-11-06T09:09:32.282Z,1.30
2018-11-06T09:12:04.230Z,1.20
2018-11-06T09:14:36.206Z,1.70
2018-11-06T09:17:08.487Z,1.00
2018-11-06T09:19:40.598Z,0.80
2018-11-06T09:22:13.034Z,1.10
2018-11-06T09:24:45.257Z,1.43
2018-11-06T09:27:17.767Z,3.30
2018-11-06T09:29:49.752Z,1.13
2018-11-06T09:32:21.653Z,2.60
2018-11-06T09:34:54.227Z,1.93
2018-11-06T09:37:25.888Z,1.33
2018-11-06T09:39:58.862Z,1.33
2018-11-06T09:42:30.612Z,0.90
2018-11-06T09:45:02.784Z,1.00
2018-11-06T09:47:34.736Z,0.60
2018-11-06T09:50:06.949Z,1.40
2018-11-06T09:52:38.862Z,1.00
2018-11-06T09:55:10.330Z,1.10
2018-11-06T09:57:42.206Z,1.10
2018-11-06T10:00:17.140Z,1.90
2018-11-06T10:02:49.000Z,0.83
2018-11-06T10:05:21.077Z,1.20
2018-11-06T10:07:53.153Z,0.70
2018-11-06T10:10:24.661Z,1.50
2018-11-06T10:12:55.904Z,2.93
2018-11-06T10:15:27.816Z,2.63
2018-11-06T10:18:00.785Z,1.33
2018-11-06T10:20:32.464Z,1.10
2018-11-06T10:23:04.176Z,0.97
2018-11-06T10:25:35.676Z,1.10
2018-11-06T10:28:06.403Z,3.90
2018-11-06T10:30:38.133Z,1.47
2018-11-06T10:33:09.455Z,1.03
2018-11-06T10:35:41.487Z,2.07
2018-11-06T10:38:13.222Z,2.20
2018-11-06T10:40:46.047Z,0.90
2018-11-06T10:43:17.007Z,1.50
2018-11-06T10:45:48.446Z,1.70
2018-11-06T10:48:20.449Z,2.30
2018-11-06T10:50:52.788Z,2.80
2018-11-06T10:53:24.648Z,1.70
2018-11-06T10:55:56.927Z,1.90
2018-11-06T10:58:28.069Z,1.37
2018-11-06T11:01:04.688Z,1.57
2018-11-06T11:03:41.813Z,2.70
2018-11-06T11:06:12.963Z,2.40
2018-11-06T11:08:43.479Z,1.73
2018-11-06T11:11:16.703Z,1.33
2018-11-06T11:13:49.218Z,3.57
2018-11-06T11:16:21.059Z,1.60
2018-11-06T11:18:53.159Z,1.50
2018-11-06T11:21:24.633Z,2.17
2018-11-06T11:23:57.520Z,1.67
2018-11-06T11:26:29.085Z,3.43
2018-11-06T11:29:01.199Z,4.23
2018-11-06T11:31:33.174Z,2.57
2018-11-06T11:34:05.412Z,2.00
2018-11-06T11:36:37.403Z,1.70
2018-11-06T11:39:10.931Z,0.90
2018-11-06T11:41:43.298Z,1.40
2018-11-06T11:44:14.563Z,1.33
2018-11-06T11:46:46.644Z,1.07
2018-11-06T11:49:18.264Z,1.00
2018-11-06T11:51:50.784Z,1.50
2018-11-06T11:54:22.696Z,1.70
2018-11-06T11:56:54.476Z,1.90
2018-11-06T11:59:25.978Z,3.13
2018-11-06T12:01:57.800Z,1.27
2018-11-06T12:04:31.056Z,2.10
2018-11-06T12:07:03.456Z,2.50
2018-11-06T12:09:36.776Z,1.07
2018-11-06T12:12:08.496Z,0.70
2018-11-06T12:14:40.617Z,1.03
2018-11-06T12:17:11.810Z,1.47
2018-11-06T12:19:44.637Z,1.60
2018-11-06T12:22:16.076Z,0.93
2018-11-06T12:24:48.387Z,1.40
2018-11-06T12:27:20.049Z,1.37
2018-11-06T12:29:51.848Z,0.73
2018-11-06T12:32:24.117Z,0.80
2018-11-06T12:34:56.408Z,2.10
2018-11-06T12:37:28.309Z,0.63
2018-11-06T12:40:00.428Z,0.60
2018-11-06T12:42:32.849Z,0.60
2018-11-06T12:45:04.653Z,1.63
2018-11-06T12:47:37.008Z,0.57
2018-11-06T12:50:09.775Z,0.60
2018-11-06T12:52:41.159Z,1.20
2018-11-06T12:55:15.316Z,0.77
2018-11-06T12:57:47.553Z,0.60
2018-11-06T13:00:19.990Z,0.80
2018-11-06T13:02:51.933Z,0.50
2018-11-06T13:05:23.743Z,0.47
2018-11-06T13:07:55.804Z,5.63
2018-11-06T13:10:26.743Z,1.03
2018-11-06T13:12:58.724Z,0.50
2018-11-06T13:15:31.394Z,0.80
2018-11-06T13:18:03.567Z,1.03
2018-11-06T13:20:35.223Z,1.63
2018-11-06T13:23:07.940Z,1.13
2018-11-06T13:25:39.761Z,1.10
2018-11-06T13:28:11.564Z,1.50
2018-11-06T13:30:43.567Z,0.90
2018-11-06T13:33:14.931Z,0.90
2018-11-06T13:35:46.071Z,0.60
2018-11-06T13:38:17.372Z,1.23
2018-11-06T13:40:49.432Z,0.60
2018-11-06T13:43:21.234Z,1.57
2018-11-06T13:45:53.683Z,1.83
2018-11-06T13:48:25.800Z,1.20
2018-11-06T13:50:56.978Z,29.57
2018-11-06T13:53:29.151Z,0.80
2018-11-06T13:56:01.651Z,1.20
2018-11-06T13:58:33.552Z,1.53
2018-11-06T14:01:05.415Z,0.90
2018-11-06T14:03:37.406Z,1.63
2018-11-06T14:06:08.816Z,0.70
2018-11-06T14:08:40.776Z,0.60
2018-11-06T14:11:12.438Z,1.10
2018-11-06T14:13:43.720Z,1.00
2018-11-06T14:16:15.137Z,8.50
2018-11-06T14:18:47.756Z,4.03
2018-11-06T14:21:19.537Z,1.60
2018-11-06T14:23:51.585Z,1.40
2018-11-06T14:26:23.277Z,2.80
2018-11-06T14:28:54.306Z,1.53
2018-11-06T14:31:26.785Z,1.50
2018-11-06T14:33:58.083Z,1.90
2018-11-06T14:36:29.318Z,1.13
2018-11-06T14:39:01.458Z,0.70
2018-11-06T14:41:33.064Z,1.60
2018-11-06T14:44:04.842Z,1.40
2018-11-06T14:46:36.811Z,2.50
2018-11-06T14:49:08.245Z,1.93
2018-11-06T14:51:40.120Z,1.10
2018-11-06T14:54:12.835Z,0.63
2018-11-06T14:56:44.912Z,1.10
2018-11-06T14:59:17.611Z,2.83
2018-11-06T15:01:49.811Z,1.03
2018-11-06T15:04:21.257Z,0.80
2018-11-06T15:06:54.174Z,2.97
2018-11-06T15:09:25.731Z,2.70
2018-11-06T15:11:58.550Z,1.20
2018-11-06T15:14:30.200Z,1.47
2018-11-06T15:17:04.401Z,1.40
2018-11-06T15:19:36.750Z,4.23
2018-11-06T15:22:08.363Z,2.50
2018-11-06T15:24:40.228Z,1.57
2018-11-06T15:27:12.227Z,3.43
2018-11-06T15:29:43.928Z,1.30
2018-11-06T15:32:16.249Z,2.90
2018-11-06T15:34:47.867Z,0.93
2018-11-06T15:37:20.788Z,13.33
2018-11-06T15:39:52.849Z,12.03
2018-11-06T15:42:24.448Z,2.17
2018-11-06T15:44:56.687Z,2.50
2018-11-06T15:47:29.009Z,1.60
2018-11-06T15:50:00.847Z,3.60
2018-11-06T15:52:32.817Z,2.23
2018-11-06T15:55:04.935Z,3.00
2018-11-06T15:57:36.847Z,3.40
2018-11-06T16:00:12.248Z,1.90
2018-11-06T16:02:44.447Z,2.60
2018-11-06T16:05:15.868Z,3.87
2018-11-06T16:07:48.027Z,2.50
2018-11-06T16:10:21.586Z,2.57
2018-11-06T16:12:54.008Z,2.47
2018-11-06T16:15:25.513Z,2.20
2018-11-06T16:17:58.667Z,2.10
2018-11-06T16:20:29.968Z,5.60
2018-11-06T16:23:02.007Z,8.00
2018-11-06T16:25:33.368Z,7.97
2018-11-06T16:28:05.378Z,8.00
2018-11-06T16:30:37.007Z,10.40
2018-11-06T16:33:09.010Z,7.90
2018-11-06T16:35:41.011Z,8.00
2018-11-06T16:38:13.149Z,7.23
2018-11-06T16:40:44.667Z,8.10
2018-11-06T16:43:16.487Z,6.50
2018-11-06T16:45:48.968Z,7.47
2018-11-06T16:48:21.806Z,7.50
2018-11-06T16:50:54.226Z,7.47
2018-11-06T16:53:26.127Z,7.47
2018-11-06T16:55:57.546Z,7.47
2018-11-06T16:58:29.926Z,8.57
2018-11-06T17:01:03.186Z,8.17
2018-11-06T17:03:34.786Z,8.70
2018-11-06T17:06:07.407Z,7.20
2018-11-06T17:08:39.267Z,8.63
2018-11-06T17:11:11.526Z,8.30
2018-11-06T17:13:44.046Z,8.33
2018-11-06T17:16:16.186Z,11.13
2018-11-06T17:18:49.326Z,8.30
2018-11-06T17:21:20.628Z,7.97
2018-11-06T17:23:53.407Z,7.50
2018-11-06T17:26:25.588Z,8.40
2018-11-06T17:28:58.126Z,7.60
2018-11-06T17:31:30.608Z,9.57
2018-11-06T17:34:03.387Z,7.90
2018-11-06T17:36:35.366Z,8.90
2018-11-06T17:39:09.289Z,9.10
2018-11-06T17:41:41.267Z,8.50
2018-11-06T17:44:13.248Z,8.40
2018-11-06T17:46:45.427Z,10.37
2018-11-06T17:49:18.237Z,9.37
2018-11-06T17:51:50.266Z,8.73
2018-11-06T17:54:21.566Z,9.30
2018-11-06T17:56:53.570Z,8.03
2018-11-06T17:59:25.687Z,7.97
2018-11-06T18:01:58.328Z,8.57
2018-11-06T18:04:29.203Z,7.10
2018-11-06T18:07:01.347Z,7.50
2018-11-06T18:09:33.466Z,7.17
2018-11-06T18:12:04.768Z,7.60
2018-11-06T18:14:37.346Z,7.13
2018-11-06T18:17:10.322Z,6.90
2018-11-06T18:19:42.227Z,7.43
2018-11-06T18:22:14.267Z,7.50
2018-11-06T18:24:45.584Z,7.60
2018-11-06T18:27:18.226Z,7.70
2018-11-06T18:29:50.487Z,7.43
2018-11-06T18:32:23.122Z,7.53
2018-11-06T18:34:54.867Z,6.73
2018-11-06T18:37:27.588Z,7.83
2018-11-06T18:39:59.947Z,8.00
2018-11-06T18:42:32.767Z,8.10
2018-11-06T18:45:05.267Z,6.93
2018-11-06T18:47:38.303Z,6.63
2018-11-06T18:50:11.647Z,8.67
2018-11-06T18:52:45.126Z,8.43
2018-11-06T18:55:18.489Z,8.40
2018-11-06T18:57:50.887Z,7.00
2018-11-06T19:00:24.127Z,6.23
2018-11-06T19:02:56.887Z,6.50
2018-11-06T19:05:28.746Z,6.83
2018-11-06T19:08:01.228Z,7.03
2018-11-06T19:10:32.999Z,7.27
2018-11-06T19:13:05.748Z,5.83
2018-11-06T19:15:38.089Z,5.33
2018-11-06T19:18:10.227Z,5.87
2018-11-06T19:20:42.527Z,6.10
2018-11-06T19:23:14.367Z,4.90
2018-11-06T19:25:46.970Z,6.10
2018-11-06T19:28:19.627Z,4.73
2018-11-06T19:30:51.708Z,5.47
2018-11-06T19:33:25.587Z,5.67
2018-11-06T19:35:57.689Z,8.83
2018-11-06T19:38:30.268Z,4.90
2018-11-06T19:41:00.646Z,3.90
2018-11-06T19:43:32.847Z,5.07
2018-11-06T19:46:05.088Z,5.10
2018-11-06T19:48:36.843Z,4.50
2018-11-06T19:51:08.648Z,5.83
2018-11-06T19:53:41.675Z,4.80
2018-11-06T19:56:13.689Z,4.87
2018-11-06T19:58:46.848Z,5.80
2018-11-06T20:01:20.987Z,5.70
2018-11-06T20:03:54.009Z,4.70
2018-11-06T20:06:25.869Z,5.10
2018-11-06T20:08:58.508Z,6.30
2018-11-06T20:11:31.531Z,4.87
2018-11-06T20:14:04.527Z,3.70
2018-11-06T20:16:37.346Z,4.33
2018-11-06T20:19:09.527Z,4.30
2018-11-06T20:21:41.587Z,5.00
2018-11-06T20:24:14.523Z,5.30
2018-11-06T20:26:46.747Z,4.60
2018-11-06T20:29:19.766Z,4.10
2018-11-06T20:31:52.746Z,4.33
2018-11-06T20:34:24.790Z,4.40
2018-11-06T20:36:58.267Z,4.00
2018-11-06T20:39:30.427Z,12.57
2018-11-06T20:42:03.669Z,3.40
2018-11-06T20:44:35.367Z,6.60
2018-11-06T20:47:08.348Z,8.93
2018-11-06T20:49:39.955Z,4.80
2018-11-06T20:52:11.827Z,4.20
2018-11-06T20:54:43.566Z,4.80
2018-11-06T20:57:16.627Z,3.83
2018-11-06T20:59:48.575Z,4.27
2018-11-06T21:02:20.566Z,5.43
2018-11-06T21:04:52.327Z,5.73
2018-11-06T21:07:24.850Z,5.20
2018-11-06T21:09:56.707Z,4.50
2018-11-06T21:12:29.987Z,3.70
2018-11-06T21:15:01.547Z,4.70
2018-11-06T21:17:34.581Z,3.93
2018-11-06T21:20:07.059Z,5.60
2018-11-06T21:22:38.887Z,5.33
2018-11-06T21:25:11.590Z,4.93
2018-11-06T21:27:44.926Z,4.73
2018-11-06T21:30:21.188Z,4.63
2018-11-06T21:32:54.387Z,4.20
2018-11-06T21:35:26.748Z,4.63
2018-11-06T21:37:58.587Z,4.50
2018-11-06T21:40:30.729Z,4.17
2018-11-06T21:43:02.968Z,4.20
2018-11-06T21:45:34.671Z,4.17
2018-11-06T21:48:06.828Z,3.30
2018-11-06T21:50:38.546Z,3.50
2018-11-06T21:53:11.347Z,4.00
2018-11-06T21:55:42.847Z,3.37
2018-11-06T21:58:15.448Z,4.80
2018-11-06T22:00:47.756Z,3.90
2018-11-06T22:03:19.848Z,3.60
2018-11-06T22:05:51.808Z,3.30
2018-11-06T22:08:23.687Z,4.50
2018-11-06T22:10:54.807Z,4.17
2018-11-06T22:13:26.407Z,3.37
2018-11-06T22:15:59.029Z,3.27
2018-11-06T22:18:30.547Z,3.70
2018-11-06T22:21:02.646Z,3.80
2018-11-06T22:23:35.047Z,4.73
2018-11-06T22:26:07.628Z,4.33
2018-11-06T22:28:40.466Z,3.70
2018-11-06T22:31:12.392Z,4.13
2018-11-06T22:33:44.907Z,3.87
2018-11-06T22:36:16.748Z,3.80
2018-11-06T22:38:48.468Z,3.50
2018-11-06T22:41:20.726Z,3.63
2018-11-06T22:43:52.647Z,3.57
2018-11-06T22:46:24.066Z,2.97
2018-11-06T22:48:55.907Z,3.37
2018-11-06T22:51:27.947Z,3.03
2018-11-06T22:53:59.608Z,3.20
2018-11-06T22:56:31.567Z,2.73
2018-11-06T22:59:03.787Z,3.53
2018-11-06T23:01:37.746Z,3.50
2018-11-06T23:04:09.627Z,2.90
2018-11-06T23:06:42.142Z,2.73
2018-11-06T23:09:14.447Z,2.40
2018-11-06T23:11:46.866Z,3.20
2018-11-06T23:14:18.368Z,2.80
2018-11-06T23:16:51.028Z,2.73
2018-11-06T23:19:23.108Z,2.53
2018-11-06T23:21:55.047Z,2.43
2018-11-06T23:24:27.595Z,3.30
2018-11-06T23:26:59.387Z,5.63
2018-11-06T23:29:32.208Z,2.90
2018-11-06T23:32:04.632Z,3.53
2018-11-06T23:34:36.708Z,3.67
2018-11-06T23:37:08.706Z,3.60
2018-11-06T23:39:40.720Z,3.10
2018-11-06T23:42:13.722Z,3.27
2018-11-06T23:44:45.508Z,4.90
2018-11-06T23:47:17.826Z,3.22
2018-11-06T23:49:50.046Z,2.83
2018-11-06T23:52:22.047Z,3.45
2018-11-06T23:54:54.767Z,3.40
2018-11-06T23:57:26.348Z,3.65
2018-11-06T23:59:58.906Z,8.88
